createdAt,value
2019-06-27T00:00:48.548Z,21.30
2019-06-27T00:03:17.861Z,21.40
2019-06-27T00:05:47.144Z,21.30
2019-06-27T00:08:16.446Z,21.30
2019-06-27T00:10:46.066Z,21.20
2019-06-27T00:13:15.361Z,21.20
2019-06-27T00:15:44.972Z,21.10
2019-06-27T00:18:14.277Z,21.10
2019-06-27T00:20:43.976Z,21.00
2019-06-27T00:23:13.276Z,21.00
2019-06-27T00:25:42.583Z,21.00
2019-06-27T00:28:12.124Z,21.00
2019-06-27T00:30:41.412Z,20.90
2019-06-27T00:33:10.717Z,20.80
2019-06-27T00:35:39.994Z,20.60
2019-06-27T00:38:09.520Z,20.60
2019-06-27T00:40:38.815Z,20.60
2019-06-27T00:43:08.119Z,20.50
2019-06-27T00:45:38.468Z,20.40
2019-06-27T00:48:08.043Z,20.40
2019-06-27T00:50:37.325Z,20.40
2019-06-27T00:53:06.627Z,20.20
2019-06-27T00:55:35.916Z,20.10
2019-06-27T00:58:05.284Z,20.00
2019-06-27T01:00:34.608Z,20.00
2019-06-27T01:03:03.955Z,19.90
2019-06-27T01:05:33.232Z,19.90
2019-06-27T01:08:02.529Z,19.90
2019-06-27T01:10:33.684Z,19.90
2019-06-27T01:13:02.997Z,20.00
2019-06-27T01:15:32.416Z,19.90
2019-06-27T01:18:01.712Z,19.80
2019-06-27T01:20:31.004Z,19.80
2019-06-27T01:23:00.300Z,19.70
2019-06-27T01:25:29.585Z,19.40
2019-06-27T01:27:58.880Z,19.30
2019-06-27T01:30:28.507Z,19.30
2019-06-27T01:32:57.837Z,19.20
2019-06-27T01:35:27.625Z,19.20
2019-06-27T01:37:56.917Z,19.10
2019-06-27T01:40:26.532Z,19.00
2019-06-27T01:42:56.133Z,19.00
2019-06-27T01:45:33.117Z,19.00
2019-06-27T01:48:03.852Z,18.90
2019-06-27T01:50:33.136Z,18.90
2019-06-27T01:53:02.449Z,18.90
2019-06-27T01:55:32.056Z,18.90
2019-06-27T01:58:01.595Z,18.90
2019-06-27T02:00:31.772Z,18.80
2019-06-27T02:03:01.207Z,18.80
2019-06-27T02:05:30.903Z,18.70
2019-06-27T02:08:00.265Z,18.70
2019-06-27T02:10:29.814Z,18.60
2019-06-27T02:12:59.116Z,18.60
2019-06-27T02:15:28.406Z,18.50
2019-06-27T02:17:57.699Z,18.40
2019-06-27T02:20:28.241Z,18.30
2019-06-27T02:22:57.848Z,18.30
2019-06-27T02:25:27.216Z,18.30
2019-06-27T02:28:03.866Z,18.30
2019-06-27T02:30:34.657Z,18.30
2019-06-27T02:33:03.952Z,18.30
2019-06-27T02:35:33.364Z,18.30
2019-06-27T02:38:04.061Z,18.30
2019-06-27T02:40:33.533Z,18.30
2019-06-27T02:43:02.825Z,18.20
2019-06-27T02:45:32.525Z,18.10
2019-06-27T02:48:01.882Z,18.10
2019-06-27T02:50:31.266Z,18.20
2019-06-27T02:53:00.780Z,18.20
2019-06-27T02:55:30.344Z,18.20
2019-06-27T02:57:59.940Z,18.20
2019-06-27T03:00:29.558Z,18.20
2019-06-27T03:02:59.066Z,18.10
2019-06-27T03:05:28.592Z,18.10
2019-06-27T03:07:57.891Z,18.00
2019-06-27T03:10:27.189Z,18.00
2019-06-27T03:12:56.728Z,18.00
2019-06-27T03:15:26.039Z,17.80
2019-06-27T03:17:55.686Z,17.80
2019-06-27T03:20:25.061Z,17.70
2019-06-27T03:22:54.353Z,17.60
2019-06-27T03:25:23.649Z,17.60
2019-06-27T03:27:52.945Z,17.50
2019-06-27T03:30:22.258Z,17.50
2019-06-27T03:32:51.543Z,17.50
2019-06-27T03:35:20.838Z,17.50
2019-06-27T03:37:50.143Z,17.60
2019-06-27T03:40:19.680Z,17.60
2019-06-27T03:42:49.046Z,17.50
2019-06-27T03:45:18.332Z,17.40
2019-06-27T03:47:47.639Z,17.40
2019-06-27T03:50:16.950Z,17.20
2019-06-27T03:52:46.339Z,17.20
2019-06-27T03:55:15.642Z,17.10
2019-06-27T03:57:45.661Z,17.10
2019-06-27T04:00:20.981Z,17.10
2019-06-27T04:02:50.287Z,17.00
2019-06-27T04:05:19.877Z,16.90
2019-06-27T04:07:49.486Z,16.90
2019-06-27T04:10:18.876Z,16.90
2019-06-27T04:12:48.213Z,16.90
2019-06-27T04:15:17.805Z,17.00
2019-06-27T04:17:47.418Z,16.90
2019-06-27T04:20:17.012Z,17.00
2019-06-27T04:22:46.625Z,17.00
2019-06-27T04:25:15.925Z,17.00
2019-06-27T04:27:45.310Z,17.00
2019-06-27T04:30:15.889Z,17.00
2019-06-27T04:32:45.460Z,16.90
2019-06-27T04:35:15.069Z,16.90
2019-06-27T04:37:44.377Z,16.90
2019-06-27T04:40:13.745Z,16.80
2019-06-27T04:42:43.048Z,16.80
2019-06-27T04:45:12.415Z,16.60
2019-06-27T04:47:41.984Z,16.60
2019-06-27T04:50:11.601Z,16.60
2019-06-27T04:52:41.216Z,16.70
2019-06-27T04:55:10.519Z,16.70
2019-06-27T04:57:40.112Z,16.70
2019-06-27T05:00:09.926Z,16.70
2019-06-27T05:02:39.233Z,16.70
2019-06-27T05:05:08.529Z,16.80
2019-06-27T05:07:37.964Z,16.80
2019-06-27T05:10:07.538Z,16.90
2019-06-27T05:12:36.869Z,16.80
2019-06-27T05:15:08.112Z,16.80
2019-06-27T05:17:37.673Z,16.80
2019-06-27T05:20:06.960Z,16.80
2019-06-27T05:22:36.436Z,16.70
2019-06-27T05:25:05.720Z,16.70
2019-06-27T05:27:35.039Z,16.70
2019-06-27T05:30:10.087Z,16.70
2019-06-27T05:32:36.357Z,16.80
2019-06-27T05:35:06.125Z,16.90
2019-06-27T05:37:35.699Z,17.10
2019-06-27T05:40:08.561Z,17.10
2019-06-27T05:42:38.187Z,17.40
2019-06-27T05:45:08.112Z,17.80
2019-06-27T05:47:38.616Z,18.10
2019-06-27T05:50:08.751Z,18.50
2019-06-27T05:52:38.053Z,18.80
2019-06-27T05:55:07.990Z,19.00
2019-06-27T05:57:37.566Z,19.10
2019-06-27T06:00:26.166Z,19.30
2019-06-27T06:02:39.725Z,19.50
2019-06-27T06:05:09.070Z,19.50
2019-06-27T06:07:38.371Z,19.60
2019-06-27T06:10:07.995Z,19.80
2019-06-27T06:12:37.516Z,19.80
2019-06-27T06:15:08.247Z,19.90
2019-06-27T06:17:37.771Z,20.20
2019-06-27T06:20:07.695Z,20.40
2019-06-27T06:22:36.978Z,20.50
2019-06-27T06:25:06.930Z,20.60
2019-06-27T06:27:36.299Z,20.50
2019-06-27T06:30:07.473Z,20.50
2019-06-27T06:32:36.827Z,20.50
2019-06-27T06:35:07.291Z,20.60
2019-06-27T06:37:36.899Z,20.70
2019-06-27T06:40:07.513Z,20.80
2019-06-27T06:42:37.036Z,20.70
2019-06-27T06:45:07.288Z,20.70
2019-06-27T06:47:36.581Z,21.10
2019-06-27T06:50:06.417Z,21.30
2019-06-27T06:52:35.776Z,21.60
2019-06-27T06:55:06.768Z,21.80
2019-06-27T06:57:36.153Z,21.90
2019-06-27T07:00:08.148Z,22.00
2019-06-27T07:02:38.082Z,22.10
2019-06-27T07:05:07.883Z,22.00
2019-06-27T07:07:37.202Z,22.20
2019-06-27T07:10:08.399Z,22.20
2019-06-27T07:12:37.699Z,22.50
2019-06-27T07:15:08.951Z,22.40
2019-06-27T07:17:38.275Z,22.40
2019-06-27T07:20:08.763Z,22.20
2019-06-27T07:22:38.052Z,22.00
2019-06-27T07:25:07.893Z,22.10
2019-06-27T07:27:37.731Z,22.20
2019-06-27T07:30:07.854Z,22.30
2019-06-27T07:32:37.203Z,22.50
2019-06-27T07:35:07.252Z,22.70
2019-06-27T07:37:37.483Z,22.70
2019-06-27T07:40:11.292Z,22.80
2019-06-27T07:42:40.553Z,22.60
2019-06-27T07:45:10.504Z,22.40
2019-06-27T07:47:40.091Z,22.70
2019-06-27T07:50:10.426Z,22.90
2019-06-27T07:52:40.667Z,22.80
2019-06-27T07:55:09.950Z,22.80
2019-06-27T07:57:39.552Z,23.10
2019-06-27T08:00:10.653Z,23.40
2019-06-27T08:02:40.181Z,23.80
2019-06-27T08:05:10.252Z,24.00
2019-06-27T08:07:40.038Z,24.20
2019-06-27T08:10:09.807Z,24.20
2019-06-27T08:12:42.314Z,24.20
2019-06-27T08:15:11.333Z,24.20
2019-06-27T08:17:41.018Z,24.30
2019-06-27T08:20:10.549Z,24.50
2019-06-27T08:22:39.804Z,24.40
2019-06-27T08:25:09.623Z,24.50
2019-06-27T08:27:39.250Z,24.60
2019-06-27T08:30:09.144Z,24.70
2019-06-27T08:32:38.697Z,24.80
2019-06-27T08:35:08.435Z,24.80
2019-06-27T08:37:39.028Z,24.80
2019-06-27T08:40:09.044Z,24.90
2019-06-27T08:42:38.337Z,24.80
2019-06-27T08:45:08.262Z,24.90
2019-06-27T08:47:37.793Z,24.80
2019-06-27T08:50:07.724Z,24.80
2019-06-27T08:52:37.276Z,25.10
2019-06-27T08:55:06.928Z,25.00
2019-06-27T08:57:37.511Z,25.10
2019-06-27T09:00:08.264Z,25.20
2019-06-27T09:02:37.535Z,25.40
2019-06-27T09:05:08.501Z,25.50
2019-06-27T09:07:37.805Z,25.60
2019-06-27T09:10:07.945Z,25.70
2019-06-27T09:12:37.259Z,25.60
2019-06-27T09:15:07.535Z,25.70
2019-06-27T09:17:36.818Z,26.00
2019-06-27T09:20:09.732Z,26.00
2019-06-27T09:22:39.162Z,25.90
2019-06-27T09:25:09.571Z,25.90
2019-06-27T09:27:39.156Z,25.90
2019-06-27T09:30:10.277Z,25.80
2019-06-27T09:32:39.823Z,26.00
2019-06-27T09:35:10.641Z,26.10
2019-06-27T09:37:39.990Z,25.60
2019-06-27T09:40:09.998Z,25.10
2019-06-27T09:42:39.572Z,25.00
2019-06-27T09:45:09.489Z,25.00
2019-06-27T09:47:39.160Z,24.90
2019-06-27T09:50:10.418Z,25.10
2019-06-27T09:52:39.779Z,25.30
2019-06-27T09:55:10.915Z,25.60
2019-06-27T09:57:40.237Z,25.90
2019-06-27T10:00:11.863Z,26.00
2019-06-27T10:02:42.903Z,26.00
2019-06-27T10:05:12.847Z,26.30
2019-06-27T10:07:42.366Z,26.50
2019-06-27T10:10:12.678Z,26.50
2019-06-27T10:12:43.377Z,26.60
2019-06-27T10:15:13.909Z,26.70
2019-06-27T10:17:43.423Z,26.50
2019-06-27T10:20:15.264Z,26.30
2019-06-27T10:22:44.560Z,26.30
2019-06-27T10:25:14.158Z,26.40
2019-06-27T10:27:43.430Z,26.70
2019-06-27T10:30:15.633Z,27.00
2019-06-27T10:32:58.429Z,27.20
2019-06-27T10:35:15.956Z,27.20
2019-06-27T10:37:45.224Z,27.20
2019-06-27T10:40:15.205Z,26.80
2019-06-27T10:42:44.473Z,26.60
2019-06-27T10:45:13.925Z,26.30
2019-06-27T10:47:43.532Z,26.20
2019-06-27T10:50:13.432Z,26.20
2019-06-27T10:52:42.737Z,26.40
2019-06-27T10:55:12.030Z,26.70
2019-06-27T10:57:41.638Z,26.90
2019-06-27T11:00:11.803Z,26.90
2019-06-27T11:02:41.079Z,26.70
2019-06-27T11:05:10.436Z,26.70
2019-06-27T11:07:40.978Z,27.00
2019-06-27T11:10:11.046Z,27.30
2019-06-27T11:12:40.632Z,27.50
2019-06-27T11:15:11.093Z,27.30
2019-06-27T11:17:40.663Z,27.10
2019-06-27T11:20:10.671Z,27.00
2019-06-27T11:22:39.938Z,27.20
2019-06-27T11:25:09.563Z,27.40
2019-06-27T11:27:38.836Z,27.60
2019-06-27T11:30:09.440Z,27.50
2019-06-27T11:32:39.020Z,27.50
2019-06-27T11:35:08.574Z,27.40
2019-06-27T11:37:37.904Z,27.30
2019-06-27T11:40:12.001Z,27.10
2019-06-27T11:42:39.976Z,27.10
2019-06-27T11:45:10.581Z,26.90
2019-06-27T11:47:40.142Z,27.10
2019-06-27T11:50:10.013Z,27.20
2019-06-27T11:52:39.443Z,27.50
2019-06-27T11:55:09.383Z,27.40
2019-06-27T11:57:38.996Z,27.00
2019-06-27T12:00:08.778Z,26.90
2019-06-27T12:02:38.429Z,26.80
2019-06-27T12:05:08.124Z,26.90
2019-06-27T12:07:37.759Z,26.90
2019-06-27T12:10:07.958Z,27.10
2019-06-27T12:12:37.586Z,27.00
2019-06-27T12:15:09.888Z,27.10
2019-06-27T12:17:39.211Z,27.40
2019-06-27T12:20:08.895Z,27.60
2019-06-27T12:22:38.177Z,27.70
2019-06-27T12:25:07.792Z,27.70
2019-06-27T12:27:37.054Z,27.40
2019-06-27T12:30:07.692Z,27.20
2019-06-27T12:32:51.200Z,27.30
2019-06-27T12:35:08.361Z,27.10
2019-06-27T12:37:39.916Z,27.10
2019-06-27T12:40:09.600Z,27.20
2019-06-27T12:42:38.906Z,27.50
2019-06-27T12:45:09.296Z,27.70
2019-06-27T12:47:38.847Z,27.70
2019-06-27T12:50:09.052Z,27.90
2019-06-27T12:52:38.569Z,27.90
2019-06-27T12:55:07.846Z,27.80
2019-06-27T12:57:37.375Z,27.60
2019-06-27T13:00:08.960Z,27.50
2019-06-27T13:02:38.742Z,27.40
2019-06-27T13:05:08.164Z,27.50
2019-06-27T13:07:37.669Z,27.50
2019-06-27T13:10:08.082Z,27.70
2019-06-27T13:12:37.370Z,27.80
2019-06-27T13:15:06.909Z,27.80
2019-06-27T13:17:36.264Z,27.90
2019-06-27T13:20:07.929Z,27.80
2019-06-27T13:22:38.534Z,28.00
2019-06-27T13:25:08.087Z,27.80
2019-06-27T13:27:37.358Z,27.70
2019-06-27T13:30:07.949Z,27.60
2019-06-27T13:32:37.552Z,27.80
2019-06-27T13:35:07.487Z,27.90
2019-06-27T13:37:36.779Z,27.70
2019-06-27T13:40:07.336Z,27.30
2019-06-27T13:42:38.358Z,27.10
2019-06-27T13:45:08.112Z,27.00
2019-06-27T13:47:37.381Z,27.10
2019-06-27T13:50:06.989Z,27.20
2019-06-27T13:52:36.295Z,27.10
2019-06-27T13:55:05.798Z,27.10
2019-06-27T13:57:35.125Z,27.20
2019-06-27T14:00:07.508Z,27.30
2019-06-27T14:02:37.246Z,27.30
2019-06-27T14:05:07.233Z,27.50
2019-06-27T14:07:36.528Z,27.70
2019-06-27T14:10:08.732Z,27.70
2019-06-27T14:12:38.096Z,27.70
2019-06-27T14:15:09.468Z,27.40
2019-06-27T14:17:38.741Z,27.20
2019-06-27T14:20:09.108Z,27.10
2019-06-27T14:22:38.385Z,27.30
2019-06-27T14:25:08.037Z,27.50
2019-06-27T14:27:37.322Z,27.40
2019-06-27T14:30:07.941Z,27.40
2019-06-27T14:32:37.535Z,27.20
2019-06-27T14:35:15.449Z,26.90
2019-06-27T14:37:38.133Z,26.90
2019-06-27T14:40:10.983Z,26.80
2019-06-27T14:42:40.570Z,26.90
2019-06-27T14:45:10.001Z,27.00
2019-06-27T14:47:39.616Z,27.00
2019-06-27T14:50:10.213Z,27.00
2019-06-27T14:52:40.525Z,26.90
2019-06-27T14:55:10.081Z,26.80
2019-06-27T14:57:39.646Z,26.80
2019-06-27T15:00:09.664Z,26.90
2019-06-27T15:02:39.274Z,26.80
2019-06-27T15:05:09.100Z,26.70
2019-06-27T15:07:38.701Z,26.70
2019-06-27T15:10:09.536Z,26.70
2019-06-27T15:12:52.540Z,26.80
2019-06-27T15:15:10.067Z,27.00
2019-06-27T15:17:39.712Z,27.00
2019-06-27T15:20:09.655Z,26.80
2019-06-27T15:22:38.944Z,26.70
2019-06-27T15:25:08.975Z,26.80
2019-06-27T15:27:39.213Z,26.90
2019-06-27T15:30:09.043Z,26.90
2019-06-27T15:32:38.509Z,27.00
2019-06-27T15:35:08.314Z,27.20
2019-06-27T15:37:37.582Z,27.10
2019-06-27T15:40:07.537Z,27.00
2019-06-27T15:42:37.943Z,27.10
2019-06-27T15:45:10.339Z,27.00
2019-06-27T15:47:39.605Z,27.00
2019-06-27T15:50:09.933Z,27.00
2019-06-27T15:52:39.220Z,26.80
2019-06-27T15:55:12.224Z,26.90
2019-06-27T15:57:41.153Z,26.80
2019-06-27T16:00:11.394Z,26.90
2019-06-27T16:02:40.662Z,27.00
2019-06-27T16:05:10.414Z,27.10
2019-06-27T16:07:39.829Z,27.10
2019-06-27T16:10:09.717Z,27.10
2019-06-27T16:12:39.380Z,27.10
2019-06-27T16:15:09.680Z,27.10
2019-06-27T16:17:39.907Z,27.10
2019-06-27T16:20:09.876Z,27.10
2019-06-27T16:22:39.138Z,27.10
2019-06-27T16:25:08.660Z,27.20
2019-06-27T16:27:38.009Z,27.20
2019-06-27T16:30:08.041Z,27.30
2019-06-27T16:32:37.313Z,27.30
2019-06-27T16:35:07.643Z,27.10
2019-06-27T16:37:36.903Z,27.00
2019-06-27T16:40:07.762Z,26.90
2019-06-27T16:42:37.205Z,26.70
2019-06-27T16:45:09.811Z,26.60
2019-06-27T16:47:39.086Z,26.50
2019-06-27T16:50:09.144Z,26.50
2019-06-27T16:52:38.436Z,26.50
2019-06-27T16:55:07.957Z,26.60
2019-06-27T16:57:37.246Z,26.60
2019-06-27T17:00:08.052Z,26.70
2019-06-27T17:02:37.317Z,26.60
2019-06-27T17:05:07.019Z,26.60
2019-06-27T17:07:36.347Z,26.60
2019-06-27T17:10:07.556Z,26.70
2019-06-27T17:12:37.062Z,26.70
2019-06-27T17:15:09.887Z,26.70
2019-06-27T17:17:39.399Z,26.70
2019-06-27T17:20:10.823Z,26.50
2019-06-27T17:22:40.469Z,26.40
2019-06-27T17:25:10.104Z,26.50
2019-06-27T17:27:39.439Z,26.50
2019-06-27T17:30:12.915Z,26.40
2019-06-27T17:32:42.200Z,26.50
2019-06-27T17:35:11.966Z,26.40
2019-06-27T17:37:42.216Z,26.40
2019-06-27T17:40:12.043Z,26.30
2019-06-27T17:42:41.335Z,26.20
2019-06-27T17:45:10.759Z,26.20
2019-06-27T17:47:40.130Z,26.20
2019-06-27T17:50:09.970Z,26.20
2019-06-27T17:52:39.260Z,26.00
2019-06-27T17:55:08.600Z,25.90
2019-06-27T17:57:37.895Z,25.90
2019-06-27T18:00:07.643Z,25.90
2019-06-27T18:02:37.087Z,26.00
2019-06-27T18:05:07.048Z,25.90
2019-06-27T18:07:36.608Z,25.90
2019-06-27T18:10:06.105Z,25.80
2019-06-27T18:12:35.385Z,25.80
2019-06-27T18:15:07.372Z,25.70
2019-06-27T18:17:36.679Z,25.50
2019-06-27T18:20:08.728Z,25.40
2019-06-27T18:22:38.351Z,25.40
2019-06-27T18:25:08.421Z,25.40
2019-06-27T18:27:37.942Z,25.40
2019-06-27T18:30:07.667Z,25.30
2019-06-27T18:32:36.947Z,25.30
2019-06-27T18:35:07.177Z,25.20
2019-06-27T18:37:36.464Z,25.20
2019-06-27T18:40:06.791Z,25.30
2019-06-27T18:42:36.091Z,25.20
2019-06-27T18:45:09.816Z,25.10
2019-06-27T18:47:39.103Z,25.10
2019-06-27T18:50:08.628Z,24.90
2019-06-27T18:52:37.947Z,24.90
2019-06-27T18:55:07.429Z,24.80
2019-06-27T18:57:37.777Z,24.70
2019-06-27T19:00:08.351Z,24.60
2019-06-27T19:02:38.032Z,24.60
2019-06-27T19:05:08.236Z,24.40
2019-06-27T19:07:45.506Z,24.30
2019-06-27T19:10:09.075Z,24.20
2019-06-27T19:12:39.341Z,24.30
2019-06-27T19:15:10.615Z,24.20
2019-06-27T19:17:39.926Z,24.10
2019-06-27T19:20:23.170Z,24.00
2019-06-27T19:23:00.391Z,24.00
2019-06-27T19:25:34.416Z,23.90
2019-06-27T19:28:04.053Z,23.90
2019-06-27T19:30:33.644Z,23.90
2019-06-27T19:33:02.951Z,23.80
2019-06-27T19:35:32.519Z,23.70
2019-06-27T19:38:03.058Z,23.50
2019-06-27T19:40:32.543Z,23.50
2019-06-27T19:43:02.165Z,23.40
2019-06-27T19:45:31.425Z,23.30
2019-06-27T19:48:00.735Z,23.30
2019-06-27T19:50:30.029Z,23.30
2019-06-27T19:52:59.306Z,23.20
2019-06-27T19:55:28.594Z,23.10
2019-06-27T19:57:57.877Z,23.00
2019-06-27T20:00:27.694Z,23.10
2019-06-27T20:02:56.972Z,22.90
2019-06-27T20:05:26.279Z,22.80
2019-06-27T20:07:55.542Z,22.70
2019-06-27T20:10:24.837Z,22.60
2019-06-27T20:12:54.119Z,22.40
2019-06-27T20:15:23.796Z,22.20
2019-06-27T20:17:53.080Z,22.10
2019-06-27T20:20:22.439Z,22.00
2019-06-27T20:22:51.705Z,22.00
2019-06-27T20:25:21.024Z,22.00
2019-06-27T20:27:50.304Z,22.00
2019-06-27T20:30:20.737Z,21.90
2019-06-27T20:32:50.245Z,21.80
2019-06-27T20:35:19.519Z,21.70
2019-06-27T20:37:49.070Z,21.60
2019-06-27T20:40:19.235Z,21.50
2019-06-27T20:42:48.592Z,21.50
2019-06-27T20:45:18.470Z,21.40
2019-06-27T20:47:49.360Z,21.40
2019-06-27T20:50:19.247Z,21.30
2019-06-27T20:52:48.662Z,21.30
2019-06-27T20:55:17.957Z,21.20
2019-06-27T20:57:47.235Z,21.20
2019-06-27T21:00:17.305Z,21.10
2019-06-27T21:02:46.817Z,21.00
2019-06-27T21:05:16.179Z,20.90
2019-06-27T21:07:45.697Z,20.90
2019-06-27T21:10:15.096Z,20.90
2019-06-27T21:12:45.359Z,20.80
2019-06-27T21:15:15.290Z,20.80
2019-06-27T21:17:44.740Z,20.70
2019-06-27T21:20:14.455Z,20.60
2019-06-27T21:22:45.989Z,20.50
2019-06-27T21:25:15.176Z,20.40
2019-06-27T21:27:44.441Z,20.30
2019-06-27T21:30:15.211Z,20.20
2019-06-27T21:32:48.059Z,20.10
2019-06-27T21:35:15.463Z,20.10
2019-06-27T21:37:45.056Z,20.00
2019-06-27T21:40:14.786Z,20.00
2019-06-27T21:42:44.289Z,19.80
2019-06-27T21:45:14.185Z,19.80
2019-06-27T21:47:43.440Z,19.70
2019-06-27T21:50:13.408Z,19.60
2019-06-27T21:52:42.673Z,19.60
2019-06-27T21:55:13.148Z,19.50
2019-06-27T21:57:42.663Z,19.40
2019-06-27T22:00:12.646Z,19.20
2019-06-27T22:02:43.547Z,19.20
2019-06-27T22:05:13.451Z,19.10
2019-06-27T22:07:42.732Z,19.00
2019-06-27T22:10:12.530Z,18.90
2019-06-27T22:12:41.816Z,18.80
2019-06-27T22:15:11.781Z,18.80
2019-06-27T22:17:41.054Z,18.70
2019-06-27T22:20:15.675Z,18.70
2019-06-27T22:22:41.931Z,18.60
2019-06-27T22:25:11.604Z,18.60
2019-06-27T22:27:41.168Z,18.50
2019-06-27T22:30:11.970Z,18.50
2019-06-27T22:32:41.561Z,18.50
2019-06-27T22:35:11.278Z,18.50
2019-06-27T22:37:58.349Z,18.40
2019-06-27T22:40:45.593Z,18.40
2019-06-27T22:43:33.041Z,18.20
2019-06-27T22:46:20.663Z,18.20
2019-06-27T22:48:49.264Z,18.10
2019-06-27T22:51:28.897Z,18.10
2019-06-27T22:53:59.827Z,18.10
2019-06-27T22:56:29.499Z,18.10
2019-06-27T22:58:59.791Z,18.10
2019-06-27T23:01:29.422Z,18.10
2019-06-27T23:03:58.971Z,18.10
2019-06-27T23:06:28.319Z,18.10
2019-06-27T23:08:57.594Z,18.00
2019-06-27T23:11:26.869Z,18.00
2019-06-27T23:13:56.157Z,17.90
2019-06-27T23:16:25.439Z,17.80
2019-06-27T23:18:54.756Z,17.70
2019-06-27T23:21:24.327Z,17.70
2019-06-27T23:23:53.909Z,17.70
2019-06-27T23:26:24.543Z,17.60
2019-06-27T23:28:54.603Z,17.70
2019-06-27T23:31:23.888Z,17.60
2019-06-27T23:33:53.169Z,17.60
2019-06-27T23:36:22.779Z,17.60
2019-06-27T23:38:52.049Z,17.50
2019-06-27T23:41:21.394Z,17.40
2019-06-27T23:43:50.700Z,17.30
2019-06-27T23:46:37.938Z,17.20
2019-06-27T23:49:07.451Z,17.20
2019-06-27T23:51:36.716Z,17.10
2019-06-27T23:54:06.350Z,17.10
2019-06-27T23:56:37.560Z,17.00
2019-06-27T23:59:06.895Z,16.90
